TAF MROC
MROC 072300Z 0800/0824 09012KT 9999 FEW040 TX29/0818Z TN19/0810Z=
METAR MROC
MROC 080300Z 10010KT 060V120 9999 FEW045 SCT060 22/17 A3000 NOSIG=
MROC 080200Z 11010KT 9999 FEW045 SCT060 23/18 A2999 NOSIG=
MROC 080100Z 11013KT 9999 FEW045 SCT060 23/19 A2995 NOSIG=
MROC 072300Z 08012KT 9999 FEW045 25/17 A2991 NOSIG=
MROC 072200Z 06015G25KT CAVOK 27/15 A2990 NOSIG=
WC MROC
WS MROC
WV MROC